Old Hickory, Arkansas
Current Conditions -  °F | °C
As of 5:53 PM on Friday 28 Nov 2014 (Local Time) from KRUE Reporting Station
Clear Clear  
Wind Chill: 51°   Ceiling: Unl
Heat Index: 51°   Visibility: 10mi
Dew Point: 38°   Wind: 3mph
Humidity: 61%   Direction: 120°ESE
Pressure: 30.04"   Gusts: NA
Location:  35.2814°N, 92.791°W
Report Text: KRUE 282353Z AUTO 12003KT 10SM CLR 11/03 A3004 RMK AO2 SLP171 T01060033 10156 20100 56007
Loading
Personal Weather Stations






























Interactive Weather Map New forecast layout! Learn more

10-Day Weather Forecast

Advertisements
Track Severe Weather on mobile